Time;durP1;ratioP1;P1;durP2;ratioP2;P2;SDS_P1;SDS_P2;PMS_P1;PMS_P2;Temp;Humidity;BMP_temperature;BMP_pressure;BME280_temperature;BME280_humidity;BME280_pressure;Samples;Min_cycle;Max_cycle;Signal;HPM_P1;HPM_P2
2023/05/13 00:01:21;;;;;;;;;8.67;7.33;;;;;15.60;69.91;101511.84;146623;606;46016;-78
2023/05/13 00:04:25;;;;;;;;;7.00;6.00;;;;;15.50;69.16;101513.19;146630;703;47010;-79
2023/05/13 00:07:29;;;;;;;;;6.00;5.00;;;;;15.43;69.61;101527.69;146622;569;47014;-73
2023/05/13 00:10:27;;;;;;;;;8.00;6.00;;;;;15.45;69.63;101527.75;146631;570;46021;-75
2023/05/13 00:13:27;;;;;;;;;5.75;5.00;;;;;15.47;69.17;101526.09;146620;602;46916;-84
2023/05/13 00:16:31;;;;;;;;;5.33;5.33;;;;;15.48;69.76;101530.50;146621;573;47010;-86
2023/05/13 00:19:26;;;;;;;;;6.67;6.67;;;;;15.51;69.12;101519.28;146618;574;46016;-84
2023/05/13 00:22:30;;;;;;;;;7.67;6.67;;;;;15.47;69.97;101506.09;146622;563;46020;-76
2023/05/13 00:25:24;;;;;;;;;4.00;3.00;;;;;15.40;70.05;101513.59;146613;635;47018;-78
2023/05/13 00:28:28;;;;;;;;;7.00;7.00;;;;;15.34;70.09;101505.50;146624;571;46010;-77
2023/05/13 00:31:37;;;;;;;;;;;;;;;;;;;;;
2023/05/13 00:34:38;;;;;;;;;5.00;5.00;;;;;15.34;70.67;101511.63;146623;586;46022;-82
2023/05/13 00:37:34;;;;;;;;;9.00;7.33;;;;;15.36;70.22;101511.69;146619;577;47014;-82
2023/05/13 00:40:47;;;;;;;;;8.67;6.00;;;;;15.32;70.18;101505.41;146625;593;46031;-83
2023/05/13 00:43:52;;;;;;;;;5.00;5.00;;;;;15.27;70.11;101516.50;146621;671;46012;-73
2023/05/13 00:46:58;;;;;;;;;5.67;4.67;;;;;15.13;69.77;101506.31;146617;610;47010;-71
2023/05/13 00:49:58;;;;;;;;;5.50;4.50;;;;;15.10;70.01;101511.41;146616;565;46017;-73
2023/05/13 00:52:55;;;;;;;;;4.67;4.00;;;;;15.09;70.14;101516.56;146622;648;45030;-73
2023/05/13 00:56:14;;;;;;;;;3.00;3.00;;;;;14.03;69.64;101339.41;146621;636;46016;-76
2023/05/13 00:59:06;;;;;;;;;7.67;6.67;;;;;14.98;69.55;101524.81;146624;611;46010;-75
2023/05/13 01:02:38;;;;;;;;;3.00;3.00;;;;;14.26;69.10;101418.72;146619;572;46013;-72
2023/05/13 01:06:01;;;;;;;;;4.33;3.33;;;;;14.82;69.71;101529.22;146622;609;46020;-73
2023/05/13 01:09:40;;;;;;;;;3.67;3.67;;;;;14.69;69.21;101533.00;146619;658;46017;-71
2023/05/13 01:12:49;;;;;;;;;5.00;3.75;;;;;14.53;69.05;101524.44;146619;613;47010;-75
2023/05/13 01:16:02;;;;;;;;;5.00;4.00;;;;;14.50;69.74;101544.22;146618;653;46016;-75
2023/05/13 01:19:33;;;;;;;;;3.33;3.33;;;;;13.82;69.46;101431.38;146620;575;46021;-71
2023/05/13 01:22:53;;;;;;;;;;;;;;;;;;;;;
2023/05/13 01:25:49;;;;;;;;;5.75;4.75;;;;;14.33;69.24;101552.13;146622;609;47010;-72
2023/05/13 01:28:43;;;;;;;;;4.00;4.00;;;;;14.26;69.49;101552.63;146615;599;47014;-72
2023/05/13 01:31:48;;;;;;;;;2.00;2.00;;;;;14.18;69.04;101551.38;146617;568;46025;-71
2023/05/13 01:34:47;;;;;;;;;4.50;4.00;;;;;14.05;68.81;101557.69;146619;660;46016;-70
2023/05/13 01:37:46;;;;;;;;;4.00;4.00;;;;;14.01;69.39;101557.44;146624;613;45020;-72
2023/05/13 01:41:13;;;;;;;;;4.00;4.00;;;;;13.96;68.86;101551.13;146617;560;46016;-71
2023/05/13 01:44:17;;;;;;;;;3.67;3.67;;;;;13.86;68.97;101568.91;146620;579;47010;-71
2023/05/13 01:47:25;;;;;;;;;5.67;5.00;;;;;13.78;68.26;101562.41;146618;573;46917;-70
2023/05/13 01:50:25;;;;;;;;;3.33;2.33;;;;;13.70;68.83;101563.69;146620;622;47020;-70
2023/05/13 01:53:18;;;;;;;;;4.25;4.00;;;;;13.60;68.55;101557.12;146619;574;46015;-70
2023/05/13 01:56:26;;;;;;;;;4.50;4.50;;;;;13.51;69.19;101555.75;146621;636;46020;-71
2023/05/13 01:59:24;;;;;;;;;4.00;4.00;;;;;13.45;69.24;101547.59;146617;590;46016;-70
2023/05/13 02:02:24;;;;;;;;;4.00;3.33;;;;;13.40;69.11;101545.66;146620;564;46010;-70
2023/05/13 02:05:17;;;;;;;;;7.67;6.00;;;;;13.36;69.15;101543.72;146615;576;46016;-71
2023/05/13 02:08:26;;;;;;;;;;;;;;;;;;;;;
2023/05/13 02:11:22;;;;;;;;;4.25;4.25;;;;;13.33;69.36;101537.44;146615;625;47012;-72
2023/05/13 02:14:31;;;;;;;;;4.00;3.00;;;;;13.28;69.25;101526.78;146622;600;46010;-70
2023/05/13 02:17:32;;;;;;;;;2.75;2.00;;;;;13.20;68.62;101520.22;146613;594;46017;-73
2023/05/13 02:20:30;;;;;;;;;3.00;3.00;;;;;13.13;69.12;101523.31;146620;625;46020;-70
2023/05/13 02:23:33;;;;;;;;;4.00;3.25;;;;;12.47;69.68;101421.75;146615;572;46916;-70
2023/05/13 02:26:29;;;;;;;;;4.25;3.00;;;;;13.09;69.74;101524.87;146620;586;46020;-71
2023/05/13 02:29:26;;;;;;;;;4.50;3.00;;;;;13.10;69.95;101524.03;146615;605;46016;-71
2023/05/13 02:32:27;;;;;;;;;3.67;2.33;;;;;13.09;68.47;101516.16;146621;640;46021;-73
2023/05/13 02:35:21;;;;;;;;;5.33;4.00;;;;;13.02;68.88;101517.56;146618;653;46016;-74
2023/05/13 02:38:19;;;;;;;;;4.50;4.50;;;;;12.97;68.84;101518.13;146618;572;47010;-74
2023/05/13 02:41:28;;;;;;;;;3.00;3.00;;;;;12.89;69.25;101513.38;146614;690;47016;-73
2023/05/13 02:44:41;;;;;;;;;4.75;3.00;;;;;12.84;69.70;101519.16;146617;578;47010;-73
2023/05/13 02:47:46;;;;;;;;;3.00;3.00;;;;;12.83;69.97;101539.06;146611;593;46017;-73
2023/05/13 02:50:41;;;;;;;;;6.00;4.00;;;;;12.88;70.60;101557.53;146620;639;47020;-73
2023/05/13 02:53:38;;;;;;;;;4.00;4.00;;;;;12.88;70.58;101548.03;146615;595;47017;-73
2023/05/13 02:56:43;;;;;;;;;4.00;3.00;;;;;12.91;70.17;101557.72;146620;652;46014;-74
2023/05/13 02:59:42;;;;;;;;;5.00;4.25;;;;;12.91;70.29;101560.31;146617;598;46016;-74
2023/05/13 03:02:42;;;;;;;;;3.25;3.00;;;;;12.84;70.49;101548.69;146620;566;46010;-71
2023/05/13 03:05:35;;;;;;;;;3.50;3.50;;;;;12.77;70.86;101543.03;146613;649;47016;-71
2023/05/13 03:08:30;;;;;;;;;5.25;5.25;;;;;12.71;70.52;101548.81;146620;639;46021;-71
2023/05/13 03:11:40;;;;;;;;;4.00;4.00;;;;;12.68;70.88;101548.66;146617;684;46026;-69
2023/05/13 03:14:39;;;;;;;;;5.00;5.00;;;;;12.68;71.03;101548.66;146622;623;46011;-71
2023/05/13 03:17:37;;;;;;;;;4.00;4.00;;;;;12.66;71.11;101556.34;146616;593;46038;-70
2023/05/13 03:20:34;;;;;;;;;4.00;4.00;;;;;12.61;70.69;101564.69;146618;592;47010;-72
2023/05/13 03:23:26;;;;;;;;;4.50;4.00;;;;;12.58;71.03;101570.62;146619;573;47012;-70
2023/05/13 03:26:18;;;;;;;;;4.50;4.00;;;;;12.54;70.54;101565.16;146621;665;46014;-77
2023/05/13 03:29:20;;;;;;;;;5.00;5.00;;;;;12.51;70.73;101578.00;146619;730;46915;-75
2023/05/13 03:32:12;;;;;;;;;5.00;5.00;;;;;12.51;70.55;101585.81;146619;578;46010;-74
2023/05/13 03:35:08;;;;;;;;;4.50;3.50;;;;;12.50;70.93;101594.44;146616;598;46016;-77
2023/05/13 03:38:06;;;;;;;;;4.25;4.00;;;;;12.55;71.56;101598.16;146618;738;46021;-77
2023/05/13 03:41:16;;;;;;;;;;;;;;;;;;;;;
2023/05/13 03:44:11;;;;;;;;;7.25;5.25;;;;;12.68;71.27;101600.69;146623;569;46010;-76
2023/05/13 03:47:09;;;;;;;;;5.25;4.75;;;;;12.73;70.82;101606.13;146615;573;46028;-76
2023/05/13 03:50:17;;;;;;;;;3.50;2.50;;;;;12.71;70.38;101599.16;146620;663;46020;-75
2023/05/13 03:53:33;;;;;;;;;5.00;5.00;;;;;12.72;70.71;101597.44;146617;664;46017;-73
2023/05/13 03:56:30;;;;;;;;;4.00;4.00;;;;;12.74;71.06;101610.53;146622;616;47010;-73
2023/05/13 03:59:28;;;;;;;;;6.75;3.00;;;;;12.78;70.97;101612.50;146617;648;46012;-74
2023/05/13 04:02:23;;;;;;;;;4.25;4.25;;;;;12.85;71.30;101617.25;146617;720;46021;-74
2023/05/13 04:05:22;;;;;;;;;6.50;6.25;;;;;12.92;70.47;101617.66;146616;579;47016;-73
2023/05/13 04:08:20;;;;;;;;;4.50;4.50;;;;;12.95;70.76;101611.72;146622;601;47010;-74
2023/05/13 04:11:25;;;;;;;;;5.75;4.75;;;;;13.00;70.28;101623.31;146615;651;46016;-73
2023/05/13 04:14:21;;;;;;;;;6.25;5.00;;;;;12.95;69.89;101614.31;146620;602;47015;-74
2023/05/13 04:17:24;;;;;;;;;6.75;5.25;;;;;13.01;70.66;101611.19;146618;704;47012;-74
2023/05/13 04:20:21;;;;;;;;;4.00;4.00;;;;;13.17;70.44;101611.19;146619;633;46010;-73
2023/05/13 04:23:18;;;;;;;;;6.00;5.50;;;;;13.38;69.76;101621.94;146616;611;47016;-74
2023/05/13 04:26:34;;;;;;;;;6.00;6.00;;;;;12.82;69.45;101485.22;146622;636;46020;-73
2023/05/13 04:29:44;;;;;;;;;6.00;4.75;;;;;13.85;69.74;101634.88;146615;695;46025;-73
2023/05/13 04:32:46;;;;;;;;;6.00;5.75;;;;;14.10;69.24;101630.94;146616;634;46020;-73
2023/05/13 04:35:46;;;;;;;;;5.00;5.00;;;;;14.39;69.89;101635.06;146619;676;47022;-75
2023/05/13 04:38:42;;;;;;;;;8.75;7.00;;;;;14.67;69.63;101642.56;146619;597;46020;-75
2023/05/13 04:41:34;;;;;;;;;5.75;4.25;;;;;14.95;68.43;101649.09;146618;661;46035;-75
2023/05/13 04:44:37;;;;;;;;;3.67;3.00;;;;;15.14;65.90;101653.47;146622;595;46020;-75
2023/05/13 04:47:41;;;;;;;;;5.50;4.25;;;;;15.34;67.04;101664.91;146616;694;47012;-78
2023/05/13 04:50:37;;;;;;;;;6.00;5.25;;;;;15.54;66.19;101669.31;146622;569;46025;-72
2023/05/13 04:53:46;;;;;;;;;3.33;2.33;;;;;15.70;64.66;101666.63;146615;595;46914;-74
2023/05/13 04:56:43;;;;;;;;;4.75;4.75;;;;;15.85;65.20;101666.41;146622;618;46014;-74
2023/05/13 04:59:46;;;;;;;;;6.00;4.00;;;;;16.03;63.14;101665.44;146618;576;46014;-74
2023/05/13 05:02:45;;;;;;;;;2.33;2.33;;;;;16.22;64.33;101660.19;146620;624;46010;-72
2023/05/13 05:05:51;;;;;;;;;3.25;3.25;;;;;16.47;64.21;101656.00;146618;606;46913;-72
2023/05/13 05:08:44;;;;;;;;;4.67;3.00;;;;;16.70;62.38;101655.25;146620;571;47020;-72
2023/05/13 05:11:53;;;;;;;;;5.00;5.00;;;;;16.90;61.30;101649.94;146618;569;46914;-75
2023/05/13 05:15:16;;;;;;;;;4.00;4.00;;;;;17.11;62.98;101657.78;146616;598;49021;-75
2023/05/13 05:18:29;;;;;;;;;4.33;3.33;;;;;17.33;61.08;101657.75;146616;686;46016;-75
2023/05/13 05:21:37;;;;;;;;;5.25;3.00;;;;;17.54;60.67;101641.97;146621;579;46010;-75
2023/05/13 05:24:41;;;;;;;;;5.00;4.25;;;;;17.74;60.25;101651.44;146618;591;46012;-76
2023/05/13 05:27:40;;;;;;;;;2.33;2.00;;;;;17.41;58.04;101563.66;146622;563;46010;-73
2023/05/13 05:30:38;;;;;;;;;4.00;4.00;;;;;17.96;58.15;101661.03;146618;585;46012;-71
2023/05/13 05:33:53;;;;;;;;;4.33;2.67;;;;;18.08;58.72;101662.31;146619;593;47014;-72
2023/05/13 05:36:53;;;;;;;;;4.75;4.00;;;;;18.19;57.84;101668.81;146619;604;46016;-73
2023/05/13 05:40:06;;;;;;;;;;;;;;;;;;;;;
2023/05/13 05:43:08;;;;;;;;;5.25;5.25;;;;;18.44;57.99;101666.22;146615;572;47013;-72
2023/05/13 05:46:14;;;;;;;;;7.00;3.67;;;;;18.58;56.99;101663.16;146621;640;46021;-72
2023/05/13 05:49:12;;;;;;;;;4.00;3.33;;;;;18.60;57.86;101664.13;146621;615;46012;-71
2023/05/13 05:52:21;;;;;;;;;4.33;4.00;;;;;18.65;57.01;101671.28;146622;569;46010;-71
2023/05/13 05:55:33;;;;;;;;;5.67;5.00;;;;;18.67;59.09;101668.72;146616;596;46016;-72
2023/05/13 05:58:28;;;;;;;;;6.00;5.00;;;;;18.73;56.91;101675.97;146623;569;46010;-71
2023/05/13 06:01:23;;;;;;;;;6.00;5.00;;;;;18.76;56.33;101682.19;146618;623;47012;-71
2023/05/13 06:04:24;;;;;;;;;;;;;;;;;;;;;
2023/05/13 06:07:29;;;;;;;;;;;;;;;;;;;;;
2023/05/13 06:10:25;;;;;;;;;4.00;4.00;;;;;18.81;56.62;101685.84;146623;576;46010;-73
2023/05/13 06:13:33;;;;;;;;;;;;;;;;;;;;;
2023/05/13 06:16:38;;;;;;;;;5.00;4.00;;;;;19.02;58.95;101680.41;146618;584;46022;-74
2023/05/13 06:19:44;;;;;;;;;5.00;4.00;;;;;19.13;55.95;101689.53;146617;647;46016;-75
2023/05/13 06:22:49;;;;;;;;;4.67;4.00;;;;;19.09;57.37;101697.25;146619;601;46010;-74
2023/05/13 06:25:49;;;;;;;;;4.00;4.00;;;;;19.07;57.81;101694.59;146618;589;47012;-73
2023/05/13 06:28:51;;;;;;;;;3.00;2.33;;;;;19.14;56.64;101706.19;146622;565;46026;-75
2023/05/13 06:31:58;;;;;;;;;5.00;5.00;;;;;19.26;56.47;101714.47;146619;595;47012;-74
2023/05/13 06:34:51;;;;;;;;;4.00;3.00;;;;;19.28;55.96;101706.62;146618;655;46020;-75
2023/05/13 06:37:43;;;;;;;;;4.33;4.33;;;;;19.28;57.04;101709.25;146615;595;46032;-74
2023/05/13 06:40:41;;;;;;;;;4.25;3.00;;;;;19.32;56.98;101703.25;146619;649;46020;-74
2023/05/13 06:43:40;;;;;;;;;6.00;6.00;;;;;19.34;57.90;101697.19;146618;648;47012;-73
2023/05/13 06:46:51;;;;;;;;;6.33;6.33;;;;;19.37;58.60;101701.66;146622;671;47010;-75
2023/05/13 06:50:13;;;;;;;;;7.00;7.00;;;;;18.86;58.25;101601.94;146619;655;47013;-75
2023/05/13 06:53:17;;;;;;;;;6.33;5.33;;;;;19.47;57.32;101703.75;146622;569;46010;-74
2023/05/13 06:56:26;;;;;;;;;5.33;4.00;;;;;18.74;60.12;101576.16;146618;621;46016;-74
2023/05/13 06:59:22;;;;;;;;;7.00;6.00;;;;;19.48;57.82;101709.88;146621;591;46010;-74
2023/05/13 07:02:33;;;;;;;;;4.33;3.00;;;;;18.41;59.38;101533.91;146618;571;46024;-74
2023/05/13 07:05:38;;;;;;;;;9.00;6.75;;;;;19.45;58.71;101718.56;146618;580;46021;-74
2023/05/13 07:08:30;;;;;;;;;6.00;5.00;;;;;19.44;58.04;101729.03;146616;684;47026;-75
2023/05/13 07:11:27;;;;;;;;;6.00;5.00;;;;;19.43;58.71;101732.50;146619;576;46020;-74
2023/05/13 07:14:32;;;;;;;;;5.00;5.00;;;;;19.47;58.06;101737.94;146616;566;47016;-74
2023/05/13 07:17:34;;;;;;;;;6.00;5.00;;;;;19.56;59.12;101745.19;146620;569;46014;-74
2023/05/13 07:20:30;;;;;;;;;7.00;6.00;;;;;19.62;58.21;101750.62;146619;645;46915;-74
2023/05/13 07:24:04;;;;;;;;;4.33;4.33;;;;;19.63;58.93;101749.81;146622;643;47010;-73
2023/05/13 07:27:06;;;;;;;;;6.67;5.67;;;;;19.70;59.04;101756.19;146621;564;46013;-74
2023/05/13 07:30:10;;;;;;;;;4.33;3.67;;;;;19.17;58.08;101658.97;146620;581;47010;-74
2023/05/13 07:33:08;;;;;;;;;5.00;5.00;;;;;19.71;57.85;101757.97;146616;599;46016;-75
2023/05/13 07:36:11;;;;;;;;;6.33;5.33;;;;;19.68;57.92;101758.75;146617;597;46021;-75
2023/05/13 07:39:26;;;;;;;;;7.67;5.00;;;;;19.11;58.68;101653.53;146618;703;47015;-74
2023/05/13 07:42:38;;;;;;;;;3.00;3.00;;;;;19.77;57.07;101766.94;146620;650;46021;-76
2023/05/13 07:45:44;;;;;;;;;5.33;5.33;;;;;19.83;57.59;101769.75;146619;575;47012;-74
2023/05/13 07:49:10;;;;;;;;;;;;;;;;;;;;;
2023/05/13 07:52:07;;;;;;;;;3.67;3.67;;;;;19.38;57.25;101695.56;146616;577;46016;-75
2023/05/13 07:55:14;;;;;;;;;4.00;4.00;;;;;19.84;58.11;101775.91;146619;585;47021;-75
2023/05/13 07:58:25;;;;;;;;;;;;;;;;;;;;;
2023/05/13 08:01:27;;;;;;;;;5.50;5.50;;;;;19.90;57.53;101783.97;146622;577;46010;-70
2023/05/13 08:04:31;;;;;;;;;3.67;3.67;;;;;19.92;56.64;101779.66;146616;585;47012;-70
2023/05/13 08:07:38;;;;;;;;;;;;;;;;;;;;;
2023/05/13 08:10:36;;;;;;;;;3.33;3.33;;;;;19.94;57.57;101775.34;146619;581;46017;-70
2023/05/13 08:13:28;;;;;;;;;4.67;4.67;;;;;19.99;57.89;101762.31;146624;583;46010;-69
2023/05/13 08:16:24;;;;;;;;;5.00;5.00;;;;;20.00;56.62;101759.75;146615;569;46016;-70
2023/05/13 08:19:26;;;;;;;;;5.33;4.33;;;;;20.01;58.88;101765.87;146622;572;46014;-70
2023/05/13 08:22:29;;;;;;;;;2.33;2.33;;;;;20.08;56.83;101765.22;146620;587;47012;-70
2023/05/13 08:25:44;;;;;;;;;;;;;;;;;;;;;
2023/05/13 08:29:01;;;;;;;;;5.00;4.00;;;;;20.14;56.00;101749.59;146619;626;46018;-69
2023/05/13 08:31:54;;;;;;;;;2.67;2.67;;;;;20.21;54.55;101742.75;146619;613;46032;-74
2023/05/13 08:35:01;;;;;;;;;2.33;2.33;;;;;20.28;52.72;101736.81;146616;590;46017;-70
2023/05/13 08:38:02;;;;;;;;;3.00;3.00;;;;;20.33;52.99;101734.31;146618;673;46020;-73
2023/05/13 08:41:22;;;;;;;;;2.67;2.67;;;;;20.35;54.72;101722.97;146618;589;47013;-72
2023/05/13 08:44:28;;;;;;;;;4.00;4.00;;;;;20.36;56.03;101729.13;146621;615;46020;-72
2023/05/13 08:47:47;;;;;;;;;2.00;1.33;;;;;20.40;56.90;101717.81;146616;614;46017;-72
2023/05/13 08:50:45;;;;;;;;;6.67;4.00;;;;;20.41;55.80;101719.59;146622;566;46010;-72
2023/05/13 08:53:42;;;;;;;;;2.67;2.67;;;;;20.41;56.96;101730.16;146618;573;47012;-72
2023/05/13 08:56:36;;;;;;;;;5.67;5.00;;;;;20.47;53.74;101722.41;146621;647;46021;-71
2023/05/13 09:00:04;;;;;;;;;4.67;3.67;;;;;19.63;58.99;101555.13;146621;647;46012;-71
2023/05/13 09:03:05;;;;;;;;;6.00;4.67;;;;;20.69;56.13;101727.41;146622;590;47008;-72
2023/05/13 09:06:11;;;;;;;;;;;;;;;;;;;;;
2023/05/13 09:09:26;;;;;;;;;3.00;2.00;;;;;19.59;55.55;101593.63;146618;591;46014;-72
2023/05/13 09:13:06;;;;;;;;;3.00;2.00;;;;;19.21;58.32;101544.28;146619;575;46012;-72
2023/05/13 09:16:22;;;;;;;;;;;;;;;;;;;;;
2023/05/13 09:19:26;;;;;;;;;4.33;4.33;;;;;19.99;55.38;101670.16;146618;667;47026;-72
2023/05/13 09:22:30;;;;;;;;;5.00;2.33;;;;;20.55;56.36;101726.16;146622;605;47010;-72
2023/05/13 09:25:27;;;;;;;;;4.00;4.00;;;;;20.66;56.56;101734.34;146618;565;46014;-72
2023/05/13 09:28:22;;;;;;;;;5.00;3.67;;;;;20.64;55.51;101744.84;146621;589;46020;-72
2023/05/13 09:31:15;;;;;;;;;4.33;4.33;;;;;20.52;56.21;101721.69;146618;616;47012;-72
2023/05/13 09:34:20;;;;;;;;;2.33;2.33;;;;;20.35;54.26;101728.22;146623;648;46010;-72
2023/05/13 09:37:28;;;;;;;;;4.00;3.00;;;;;20.30;54.61;101730.72;146618;646;46913;-73
2023/05/13 09:40:35;;;;;;;;;3.67;3.67;;;;;20.38;54.68;101733.59;146615;584;46051;-73
2023/05/13 09:43:36;;;;;;;;;4.00;3.00;;;;;20.49;54.71;101723.31;146619;583;46916;-73
2023/05/13 09:46:40;;;;;;;;;2.00;2.00;;;;;20.63;54.47;101729.91;146622;629;46020;-73
2023/05/13 09:49:35;;;;;;;;;4.00;4.00;;;;;20.84;55.08;101726.00;146618;565;46917;-73
2023/05/13 09:52:40;;;;;;;;;3.00;3.00;;;;;20.96;52.45;101736.84;146616;591;47020;-74
2023/05/13 09:55:39;;;;;;;;;3.33;3.00;;;;;20.97;54.20;101733.38;146616;565;47012;-73
2023/05/13 09:58:42;;;;;;;;;3.00;3.00;;;;;20.91;54.17;101704.25;146621;566;46010;-72
2023/05/13 10:02:05;;;;;;;;;6.00;3.00;;;;;20.80;53.83;101684.63;146615;570;47015;-72
2023/05/13 10:05:11;;;;;;;;;3.00;3.00;;;;;20.14;54.46;101596.88;146620;599;46014;-72
2023/05/13 10:08:29;;;;;;;;;3.33;3.00;;;;;20.70;52.22;101700.19;146619;599;46917;-72
2023/05/13 10:11:26;;;;;;;;;5.00;2.67;;;;;20.76;51.55;101692.44;146620;566;46020;-71
2023/05/13 10:14:24;;;;;;;;;3.00;3.00;;;;;20.84;51.62;101694.37;146618;641;46916;-71
2023/05/13 10:17:18;;;;;;;;;2.67;2.67;;;;;20.88;53.65;101697.13;146618;650;46011;-72
2023/05/13 10:20:35;;;;;;;;;3.00;3.00;;;;;20.95;55.48;101695.53;146614;609;48016;-73
2023/05/13 10:23:32;;;;;;;;;4.00;3.00;;;;;20.93;53.75;101719.25;146620;577;46021;-72
2023/05/13 10:26:30;;;;;;;;;2.33;2.33;;;;;20.86;54.22;101704.09;146617;588;47016;-73
2023/05/13 10:30:00;;;;;;;;;;;;;;;;;;;;;
2023/05/13 10:33:07;;;;;;;;;3.33;3.00;;;;;20.83;51.52;101713.69;146618;616;46016;-72
2023/05/13 10:37:05;;;;;;;;;;;;;;;;;;;;;
2023/05/13 10:40:42;;;;;;;;;2.33;2.33;;;;;20.16;48.47;101595.19;146620;579;46034;-71
2023/05/13 10:43:40;;;;;;;;;4.33;4.00;;;;;20.64;50.85;101700.03;146621;600;46010;-72
2023/05/13 10:46:51;;;;;;;;;2.67;2.33;;;;;19.95;53.09;101573.56;146617;628;47012;-73
2023/05/13 10:49:46;;;;;;;;;3.33;3.33;;;;;20.86;52.56;101701.47;146623;659;46010;-73
2023/05/13 10:52:53;;;;;;;;;6.00;4.67;;;;;21.13;52.04;101701.25;146617;564;47016;-73
2023/05/13 10:55:57;;;;;;;;;4.00;3.00;;;;;21.21;51.65;101691.78;146621;583;46010;-72
2023/05/13 10:59:10;;;;;;;;;3.00;3.00;;;;;20.15;54.35;101524.03;146618;563;46014;-72
2023/05/13 11:02:41;;;;;;;;;4.00;3.33;;;;;21.01;53.06;101687.78;146623;584;46010;-72
2023/05/13 11:05:37;;;;;;;;;5.00;3.50;;;;;20.75;53.31;101680.13;146618;634;46016;-72
2023/05/13 11:09:18;;;;;;;;;4.67;4.67;;;;;19.90;56.56;101581.31;146623;573;47010;-73
2023/05/13 11:12:33;;;;;;;;;4.33;4.33;;;;;20.27;55.47;101672.69;146620;639;46016;-72
2023/05/13 11:15:45;;;;;;;;;7.00;4.00;;;;;20.36;56.20;101665.91;146617;570;46020;-72
2023/05/13 11:18:46;;;;;;;;;5.67;4.00;;;;;20.49;57.21;101673.25;146617;599;46016;-72
2023/05/13 11:21:44;;;;;;;;;3.67;3.33;;;;;20.68;56.83;101675.53;146623;600;46020;-72
2023/05/13 11:24:41;;;;;;;;;5.00;5.00;;;;;20.91;56.72;101677.87;146619;578;46016;-72
2023/05/13 11:27:54;;;;;;;;;;;;;;;;;;;;;
2023/05/13 11:31:16;;;;;;;;;6.67;6.00;;;;;21.23;55.64;101681.25;146617;571;46014;-72
2023/05/13 11:34:25;;;;;;;;;4.33;4.33;;;;;21.25;55.87;101684.81;146622;610;46010;-72
2023/05/13 11:37:35;;;;;;;;;6.33;6.33;;;;;21.26;55.72;101673.41;146617;654;47016;-72
2023/05/13 11:40:41;;;;;;;;;7.33;4.67;;;;;21.32;55.85;101683.22;146620;569;46010;-71
2023/05/13 11:44:25;;;;;;;;;;;;;;;;;;;;;
2023/05/13 11:47:41;;;;;;;;;3.67;3.67;;;;;21.25;56.24;101683.94;146620;565;46021;-72
2023/05/13 11:50:33;;;;;;;;;6.00;6.00;;;;;21.22;56.71;101680.38;146616;656;46016;-74
2023/05/13 11:53:27;;;;;;;;;4.33;4.33;;;;;21.24;56.55;101683.03;146623;615;46010;-74
2023/05/13 11:56:34;;;;;;;;;5.33;5.33;;;;;21.28;57.44;101678.69;146617;582;46016;-73
2023/05/13 11:59:27;;;;;;;;;5.00;5.00;;;;;21.36;56.46;101672.78;146619;640;46020;-72
2023/05/13 12:02:34;;;;;;;;;;;;;;;;;;;;;
2023/05/13 12:05:45;;;;;;;;;;;;;;;;;;;;;
2023/05/13 12:08:50;;;;;;;;;5.67;5.00;;;;;21.50;56.76;101659.03;146617;647;46915;-72
2023/05/13 12:11:56;;;;;;;;;9.00;4.00;;;;;21.55;56.04;101663.50;146622;663;46010;-72
2023/05/13 12:14:56;;;;;;;;;4.67;3.00;;;;;21.58;56.18;101662.69;146619;617;46917;-72
2023/05/13 12:17:54;;;;;;;;;4.00;4.00;;;;;21.52;55.75;101650.25;146622;597;46023;-72
2023/05/13 12:21:01;;;;;;;;;7.00;6.00;;;;;21.50;57.27;101653.75;146617;624;46016;-71
2023/05/13 12:23:52;;;;;;;;;7.00;5.00;;;;;21.41;57.10;101660.59;146706;575;46014;-72
2023/05/13 12:26:50;;;;;;;;;7.33;5.67;;;;;21.29;57.39;101662.94;146621;620;46016;-72
2023/05/13 12:30:12;;;;;;;;;5.00;5.00;;;;;21.25;57.52;101652.28;146625;584;46010;-72
2023/05/13 12:33:10;;;;;;;;;4.00;4.00;;;;;21.19;57.63;101661.84;146622;572;45863;-71
2023/05/13 12:36:34;;;;;;;;;5.00;5.00;;;;;21.19;58.14;101655.69;146621;600;46020;-71
2023/05/13 12:39:38;;;;;;;;;5.67;5.00;;;;;21.18;58.55;101645.97;146619;578;47012;-71
2023/05/13 12:43:02;;;;;;;;;6.00;6.00;;;;;21.20;57.80;101644.25;146623;565;46020;-72
2023/05/13 12:46:02;;;;;;;;;5.25;3.75;;;;;21.17;58.79;101644.19;146615;708;47428;-72
2023/05/13 12:49:11;;;;;;;;;7.50;5.25;;;;;21.08;59.05;101644.88;146624;632;45020;-72
2023/05/13 12:52:12;;;;;;;;;7.00;7.00;;;;;20.98;58.65;101641.13;146617;566;47017;-71
2023/05/13 12:55:04;;;;;;;;;8.67;6.67;;;;;20.90;58.58;101644.44;146621;592;46021;-72
2023/05/13 12:58:09;;;;;;;;;4.00;3.00;;;;;20.84;58.95;101649.56;146616;667;46016;-71
2023/05/13 13:01:14;;;;;;;;;5.00;5.00;;;;;20.84;59.30;101665.38;146624;564;45021;-72
2023/05/13 13:04:10;;;;;;;;;5.67;5.67;;;;;20.80;59.33;101658.25;146619;577;46012;-73
2023/05/13 13:07:23;;;;;;;;;7.33;7.33;;;;;20.72;58.79;101656.34;146622;660;46021;-71
2023/05/13 13:10:33;;;;;;;;;;;;;;;;;;;;;
2023/05/13 13:13:35;;;;;;;;;4.00;4.00;;;;;20.68;59.25;101666.75;146621;581;46035;-73
2023/05/13 13:16:30;;;;;;;;;6.00;4.00;;;;;20.64;59.47;101664.91;146618;569;46014;-72
2023/05/13 13:19:25;;;;;;;;;5.00;5.00;;;;;20.58;59.43;101665.62;146624;574;45031;-73
2023/05/13 13:22:25;;;;;;;;;7.67;7.00;;;;;20.53;60.13;101659.38;146620;621;46012;-72
2023/05/13 13:25:21;;;;;;;;;6.00;5.25;;;;;20.46;60.38;101667.91;146624;587;47020;-73
2023/05/13 13:28:20;;;;;;;;;5.00;5.00;;;;;20.42;60.51;101661.69;146624;593;46027;-73
2023/05/13 13:31:34;;;;;;;;;5.00;4.00;;;;;20.38;60.52;101659.84;146629;630;46021;-72
2023/05/13 13:34:27;;;;;;;;;3.33;3.00;;;;;19.74;60.21;101558.94;146622;572;46016;-73
2023/05/13 13:37:25;;;;;;;;;5.75;5.00;;;;;20.21;57.75;101654.09;146628;569;47010;-73
2023/05/13 13:40:34;;;;;;;;;4.67;4.67;;;;;20.25;60.62;101655.97;146626;640;46012;-72
2023/05/13 13:43:27;;;;;;;;;6.00;5.00;;;;;20.35;60.39;101648.31;146628;630;47010;-73
2023/05/13 13:46:26;;;;;;;;;4.67;4.33;;;;;20.46;61.52;101646.84;146625;631;46012;-71
2023/05/13 13:49:24;;;;;;;;;5.00;5.00;;;;;20.52;61.50;101645.28;146630;694;46010;-72
2023/05/13 13:52:22;;;;;;;;;0.00;0.00;;;;;20.53;58.84;101633.03;146627;600;47012;-72
2023/05/13 13:55:31;;;;;;;;;6.00;4.67;;;;;20.47;59.09;101636.34;146629;581;47010;-72
2023/05/13 13:58:34;;;;;;;;;6.33;6.00;;;;;20.27;57.85;101642.84;146624;585;46016;-72
2023/05/13 14:01:30;;;;;;;;;5.00;4.00;;;;;20.11;59.08;101640.66;146631;566;46010;-73
2023/05/13 14:04:38;;;;;;;;;7.67;6.00;;;;;20.02;60.91;101638.66;146624;584;47012;-72
2023/05/13 14:07:52;;;;;;;;;;;;;;;;;;;;;
2023/05/13 14:10:48;;;;;;;;;5.67;5.67;;;;;19.79;62.46;101648.56;146625;643;46012;-73
2023/05/13 14:13:41;;;;;;;;;5.33;5.33;;;;;19.77;63.44;101658.16;146633;573;46020;-72
2023/05/13 14:16:37;;;;;;;;;4.33;3.33;;;;;19.80;63.01;101652.97;146624;656;47012;-71
2023/05/13 14:19:43;;;;;;;;;8.50;6.00;;;;;19.73;63.72;101641.38;146628;650;46010;-72
2023/05/13 14:22:45;;;;;;;;;6.33;5.33;;;;;19.63;63.88;101628.78;146624;626;46017;-72
2023/05/13 14:25:43;;;;;;;;;5.50;5.50;;;;;19.57;64.57;101625.97;146623;569;47010;-73
2023/05/13 14:28:38;;;;;;;;;4.00;3.00;;;;;19.50;63.55;101631.88;146621;572;46016;-72
2023/05/13 14:31:30;;;;;;;;;5.67;4.33;;;;;19.44;64.64;101629.06;146621;563;46020;-72
2023/05/13 14:34:28;;;;;;;;;6.33;6.00;;;;;19.41;63.71;101626.34;146617;624;46916;-71
2023/05/13 14:37:26;;;;;;;;;9.67;7.67;;;;;19.32;63.74;101637.53;146618;592;47011;-73
2023/05/13 14:40:29;;;;;;;;;5.00;4.67;;;;;19.24;65.30;101620.63;146622;573;46012;-72
2023/05/13 14:43:47;;;;;;;;;5.33;5.00;;;;;19.25;65.71;101625.00;146623;613;46021;-72
2023/05/13 14:46:57;;;;;;;;;3.67;3.00;;;;;19.18;64.33;101630.94;146616;581;46016;-72
2023/05/13 14:50:18;;;;;;;;;;;;;;;;;;;;;
2023/05/13 14:53:19;;;;;;;;;6.00;5.67;;;;;19.02;65.27;101619.06;146619;569;46016;-72